sensor_id;sensor_type;location;lat;lon;timestamp;pressure;altitude;pressure_sealevel;temperature;humidity
43703;BME280;29304;56.146;40.396;2022-09-09T00:00:15;100203.88;;;7.21;100.00
43703;BME280;29304;56.146;40.396;2022-09-09T00:00:28;100206.56;;;7.18;100.00
43703;BME280;29304;56.146;40.396;2022-09-09T00:00:47;100211.25;;;7.05;100.00
43703;BME280;29304;56.146;40.396;2022-09-09T00:01:46;100196.72;;;6.98;100.00
43703;BME280;29304;56.146;40.396;2022-09-09T00:02:21;100206.91;;;7.06;100.00
43703;BME280;29304;56.146;40.396;2022-09-09T00:02:32;100204.25;;;7.09;100.00
43703;BME280;29304;56.146;40.396;2022-09-09T00:02:50;100213.66;;;7.11;100.00
43703;BME280;29304;56.146;40.396;2022-09-09T00:03:22;100212.03;;;7.09;100.00
43703;BME280;29304;56.146;40.396;2022-09-09T00:04:29;100205.78;;;7.15;100.00
43703;BME280;29304;56.146;40.396;2022-09-09T00:04:40;100206.06;;;7.05;100.00
43703;BME280;29304;56.146;40.396;2022-09-09T00:05:14;100210.28;;;7.09;100.00
43703;BME280;29304;56.146;40.396;2022-09-09T00:05:37;100208.81;;;6.99;100.00
43703;BME280;29304;56.146;40.396;2022-09-09T00:06:18;100213.91;;;7.04;100.00
43703;BME280;29304;56.146;40.396;2022-09-09T00:06:45;100200.09;;;7.02;100.00
43703;BME280;29304;56.146;40.396;2022-09-09T00:07:10;100215.53;;;7.08;100.00
43703;BME280;29304;56.146;40.396;2022-09-09T00:07:53;100214.44;;;7.15;100.00
43703;BME280;29304;56.146;40.396;2022-09-09T00:08:04;100204.19;;;7.10;100.00
43703;BME280;29304;56.146;40.396;2022-09-09T00:08:27;100201.16;;;6.94;100.00
43703;BME280;29304;56.146;40.396;2022-09-09T00:09:11;100198.41;;;7.01;100.00
43703;BME280;29304;56.146;40.396;2022-09-09T00:09:26;100210.34;;;7.06;100.00
43703;BME280;29304;56.146;40.396;2022-09-09T00:09:53;100208.56;;;7.08;100.00
43703;BME280;29304;56.146;40.396;2022-09-09T00:10:16;100197.69;;;6.95;100.00
43703;BME280;29304;56.146;40.396;2022-09-09T00:10:37;100206.31;;;6.96;100.00
43703;BME280;29304;56.146;40.396;2022-09-09T00:10:58;100203.63;;;6.99;100.00
43703;BME280;29304;56.146;40.396;2022-09-09T00:11:12;100214.66;;;7.07;100.00
43703;BME280;29304;56.146;40.396;2022-09-09T00:11:30;100198.63;;;6.93;100.00
43703;BME280;29304;56.146;40.396;2022-09-09T00:12:12;100206.38;;;6.94;100.00
43703;BME280;29304;56.146;40.396;2022-09-09T00:12:40;100207.00;;;7.03;100.00
43703;BME280;29304;56.146;40.396;2022-09-09T00:13:26;100207.97;;;6.99;100.00
43703;BME280;29304;56.146;40.396;2022-09-09T00:13:46;100211.41;;;6.99;100.00
43703;BME280;29304;56.146;40.396;2022-09-09T00:14:01;100210.53;;;7.00;100.00
43703;BME280;29304;56.146;40.396;2022-09-09T00:14:23;100210.50;;;7.02;100.00
43703;BME280;29304;56.146;40.396;2022-09-09T00:14:47;100200.34;;;6.94;100.00
43703;BME280;29304;56.146;40.396;2022-09-09T00:15:12;100204.75;;;6.90;100.00
43703;BME280;29304;56.146;40.396;2022-09-09T00:15:34;100215.72;;;7.00;100.00
43703;BME280;29304;56.146;40.396;2022-09-09T00:16:03;100210.56;;;6.99;100.00
43703;BME280;29304;56.146;40.396;2022-09-09T00:16:19;100211.38;;;7.01;100.00
43703;BME280;29304;56.146;40.396;2022-09-09T00:16:32;100207.16;;;6.96;100.00
43703;BME280;29304;56.146;40.396;2022-09-09T00:16:51;100209.03;;;6.93;100.00
43703;BME280;29304;56.146;40.396;2022-09-09T00:17:56;100201.41;;;6.85;100.00
43703;BME280;29304;56.146;40.396;2022-09-09T00:19:15;100213.25;;;6.95;100.00
43703;BME280;29304;56.146;40.396;2022-09-09T00:19:45;100214.88;;;7.00;100.00
43703;BME280;29304;56.146;40.396;2022-09-09T00:20:14;100218.50;;;6.94;100.00
43703;BME280;29304;56.146;40.396;2022-09-09T00:20:36;100212.63;;;6.87;100.00
43703;BME280;29304;56.146;40.396;2022-09-09T00:20:58;100218.53;;;6.92;100.00
43703;BME280;29304;56.146;40.396;2022-09-09T00:21:14;100220.09;;;6.98;100.00
43703;BME280;29304;56.146;40.396;2022-09-09T00:21:33;100221.72;;;7.02;100.00
43703;BME280;29304;56.146;40.396;2022-09-09T00:22:17;100202.41;;;6.81;100.00
43703;BME280;29304;56.146;40.396;2022-09-09T00:22:30;100219.50;;;6.88;100.00
43703;BME280;29304;56.146;40.396;2022-09-09T00:22:49;100210.00;;;6.89;100.00
43703;BME280;29304;56.146;40.396;2022-09-09T00:23:21;100215.28;;;6.84;100.00
43703;BME280;29304;56.146;40.396;2022-09-09T00:23:54;100217.88;;;6.84;100.00
43703;BME280;29304;56.146;40.396;2022-09-09T00:24:23;100218.22;;;6.72;100.00
43703;BME280;29304;56.146;40.396;2022-09-09T00:24:53;100218.78;;;6.83;100.00
43703;BME280;29304;56.146;40.396;2022-09-09T00:25:13;100219.72;;;6.80;100.00
43703;BME280;29304;56.146;40.396;2022-09-09T00:25:49;100216.91;;;6.88;100.00
43703;BME280;29304;56.146;40.396;2022-09-09T00:26:09;100221.19;;;6.91;100.00
43703;BME280;29304;56.146;40.396;2022-09-09T00:26:33;100221.94;;;6.94;100.00
43703;BME280;29304;56.146;40.396;2022-09-09T00:26:48;100224.41;;;6.99;100.00
43703;BME280;29304;56.146;40.396;2022-09-09T00:27:06;100209.94;;;6.90;100.00
43703;BME280;29304;56.146;40.396;2022-09-09T00:27:42;100220.28;;;6.92;100.00
43703;BME280;29304;56.146;40.396;2022-09-09T00:27:54;100217.78;;;6.89;100.00
43703;BME280;29304;56.146;40.396;2022-09-09T00:28:13;100223.81;;;6.89;100.00
43703;BME280;29304;56.146;40.396;2022-09-09T00:28:27;100221.28;;;6.86;100.00
43703;BME280;29304;56.146;40.396;2022-09-09T00:29:03;100228.09;;;6.90;100.00
43703;BME280;29304;56.146;40.396;2022-09-09T00:29:31;100228.03;;;6.93;100.00
43703;BME280;29304;56.146;40.396;2022-09-09T00:29:47;100231.69;;;6.86;100.00
43703;BME280;29304;56.146;40.396;2022-09-09T00:30:21;100226.53;;;6.85;100.00
43703;BME280;29304;56.146;40.396;2022-09-09T00:30:34;100222.09;;;6.88;100.00
43703;BME280;29304;56.146;40.396;2022-09-09T00:30:46;100226.31;;;6.92;100.00
43703;BME280;29304;56.146;40.396;2022-09-09T00:31:07;100224.53;;;6.94;100.00
43703;BME280;29304;56.146;40.396;2022-09-09T00:31:23;100226.38;;;6.91;100.00
43703;BME280;29304;56.146;40.396;2022-09-09T00:31:35;100227.19;;;6.93;100.00
43703;BME280;29304;56.146;40.396;2022-09-09T00:31:47;100214.38;;;6.87;100.00
43703;BME280;29304;56.146;40.396;2022-09-09T00:32:00;100223.06;;;6.86;100.00
43703;BME280;29304;56.146;40.396;2022-09-09T00:32:17;100220.47;;;6.84;100.00
43703;BME280;29304;56.146;40.396;2022-09-09T00:32:30;100220.47;;;6.84;100.00
43703;BME280;29304;56.146;40.396;2022-09-09T00:32:41;100224.09;;;6.78;100.00
43703;BME280;29304;56.146;40.396;2022-09-09T00:33:08;100230.06;;;6.82;100.00
43703;BME280;29304;56.146;40.396;2022-09-09T00:33:23;100220.69;;;6.76;100.00
43703;BME280;29304;56.146;40.396;2022-09-09T00:33:34;100226.78;;;6.75;100.00
43703;BME280;29304;56.146;40.396;2022-09-09T00:33:46;100225.09;;;6.74;100.00
43703;BME280;29304;56.146;40.396;2022-09-09T00:34:02;100223.47;;;6.69;100.00
43703;BME280;29304;56.146;40.396;2022-09-09T00:34:23;100227.69;;;6.73;100.00
43703;BME280;29304;56.146;40.396;2022-09-09T00:34:36;100232.00;;;6.74;100.00
43703;BME280;29304;56.146;40.396;2022-09-09T00:34:52;100222.41;;;6.77;100.00
43703;BME280;29304;56.146;40.396;2022-09-09T00:35:27;100225.19;;;6.70;100.00
43703;BME280;29304;56.146;40.396;2022-09-09T00:35:42;100223.31;;;6.75;100.00
43703;BME280;29304;56.146;40.396;2022-09-09T00:35:56;100227.59;;;6.77;100.00
43703;BME280;29304;56.146;40.396;2022-09-09T00:36:18;100225.00;;;6.77;100.00
43703;BME280;29304;56.146;40.396;2022-09-09T00:36:31;100232.81;;;6.76;100.00
43703;BME280;29304;56.146;40.396;2022-09-09T00:36:43;100215.63;;;6.72;100.00
43703;BME280;29304;56.146;40.396;2022-09-09T00:36:56;100226.66;;;6.80;100.00
43703;BME280;29304;56.146;40.396;2022-09-09T00:37:08;100221.47;;;6.80;100.00
43703;BME280;29304;56.146;40.396;2022-09-09T00:37:20;100218.19;;;6.73;100.00
43703;BME280;29304;56.146;40.396;2022-09-09T00:37:32;100230.28;;;6.74;100.00
43703;BME280;29304;56.146;40.396;2022-09-09T00:37:46;100229.31;;;6.77;100.00
43703;BME280;29304;56.146;40.396;2022-09-09T00:38:10;100232.81;;;6.76;100.00
43703;BME280;29304;56.146;40.396;2022-09-09T00:38:51;100224.28;;;6.71;100.00
43703;BME280;29304;56.146;40.396;2022-09-09T00:39:03;100231.91;;;6.78;100.00
43703;BME280;29304;56.146;40.396;2022-09-09T00:39:38;100231.75;;;6.85;100.00
43703;BME280;29304;56.146;40.396;2022-09-09T00:39:49;100216.34;;;6.77;100.00
43703;BME280;29304;56.146;40.396;2022-09-09T00:40:17;100226.63;;;6.81;100.00
43703;BME280;29304;56.146;40.396;2022-09-09T00:40:38;100233.13;;;6.63;100.00
43703;BME280;29304;56.146;40.396;2022-09-09T00:41:02;100238.25;;;6.66;100.00
43703;BME280;29304;56.146;40.396;2022-09-09T00:41:21;100214.25;;;6.58;100.00
43703;BME280;29304;56.146;40.396;2022-09-09T00:42:20;100223.47;;;6.69;100.00
43703;BME280;29304;56.146;40.396;2022-09-09T00:42:43;100233.59;;;6.79;100.00
43703;BME280;29304;56.146;40.396;2022-09-09T00:43:26;100232.72;;;6.79;100.00
43703;BME280;29304;56.146;40.396;2022-09-09T00:43:39;100228.50;;;6.75;100.00
43703;BME280;29304;56.146;40.396;2022-09-09T00:44:03;100231.91;;;6.77;100.00
43703;BME280;29304;56.146;40.396;2022-09-09T00:44:34;100230.94;;;6.81;100.00
43703;BME280;29304;56.146;40.396;2022-09-09T00:47:51;100241.34;;;6.81;100.00
43703;BME280;29304;56.146;40.396;2022-09-09T00:48:09;100231.03;;;6.78;100.00
43703;BME280;29304;56.146;40.396;2022-09-09T00:48:22;100216.66;;;6.66;100.00
43703;BME280;29304;56.146;40.396;2022-09-09T00:49:21;100232.81;;;6.76;100.00
43703;BME280;29304;56.146;40.396;2022-09-09T00:51:05;100235.22;;;6.84;100.00
43703;BME280;29304;56.146;40.396;2022-09-09T00:53:09;100231.75;;;6.83;100.00
43703;BME280;29304;56.146;40.396;2022-09-09T00:53:59;100243.19;;;6.76;100.00
43703;BME280;29304;56.146;40.396;2022-09-09T00:55:37;100228.66;;;6.70;100.00
43703;BME280;29304;56.146;40.396;2022-09-09T00:56:21;100233.75;;;6.73;100.00
43703;BME280;29304;56.146;40.396;2022-09-09T00:56:38;100236.28;;;6.76;100.00
43703;BME280;29304;56.146;40.396;2022-09-09T00:57:37;100245.22;;;6.64;100.00
43703;BME280;29304;56.146;40.396;2022-09-09T00:57:51;100243.41;;;6.68;100.00
43703;BME280;29304;56.146;40.396;2022-09-09T00:58:02;100244.25;;;6.69;100.00
43703;BME280;29304;56.146;40.396;2022-09-09T00:58:12;100239.09;;;6.67;100.00
43703;BME280;29304;56.146;40.396;2022-09-09T00:58:23;100230.59;;;6.62;100.00
43703;BME280;29304;56.146;40.396;2022-09-09T00:58:33;100238.31;;;6.63;100.00
43703;BME280;29304;56.146;40.396;2022-09-09T00:59:08;100241.50;;;6.75;100.00
43703;BME280;29304;56.146;40.396;2022-09-09T00:59:41;100245.13;;;6.67;100.00
43703;BME280;29304;56.146;40.396;2022-09-09T01:00:18;100249.56;;;6.64;100.00
43703;BME280;29304;56.146;40.396;2022-09-09T01:00:33;100243.44;;;6.66;100.00
43703;BME280;29304;56.146;40.396;2022-09-09T01:01:04;100241.91;;;6.59;100.00
43703;BME280;29304;56.146;40.396;2022-09-09T01:01:18;100247.06;;;6.61;100.00
43703;BME280;29304;56.146;40.396;2022-09-09T01:01:28;100241.72;;;6.65;100.00
43703;BME280;29304;56.146;40.396;2022-09-09T01:01:39;100239.88;;;6.71;100.00
43703;BME280;29304;56.146;40.396;2022-09-09T01:01:50;100244.97;;;6.74;100.00
43703;BME280;29304;56.146;40.396;2022-09-09T01:02:10;100244.22;;;6.70;100.00
43703;BME280;29304;56.146;40.396;2022-09-09T01:03:51;100248.38;;;6.76;100.00
43703;BME280;29304;56.146;40.396;2022-09-09T01:04:09;100244.91;;;6.77;100.00
43703;BME280;29304;56.146;40.396;2022-09-09T01:04:29;100242.28;;;6.78;100.00
43703;BME280;29304;56.146;40.396;2022-09-09T01:04:44;100248.44;;;6.74;100.00
43703;BME280;29304;56.146;40.396;2022-09-09T01:04:57;100246.75;;;6.73;100.00
43703;BME280;29304;56.146;40.396;2022-09-09T01:05:17;100242.28;;;6.78;100.00
43703;BME280;29304;56.146;40.396;2022-09-09T01:05:39;100242.59;;;6.66;100.00
43703;BME280;29304;56.146;40.396;2022-09-09T01:06:29;100247.91;;;6.61;100.00
43703;BME280;29304;56.146;40.396;2022-09-09T01:06:40;100231.63;;;6.56;100.00
43703;BME280;29304;56.146;40.396;2022-09-09T01:06:55;100246.16;;;6.62;100.00
43703;BME280;29304;56.146;40.396;2022-09-09T01:07:18;100243.69;;;6.57;100.00
43703;BME280;29304;56.146;40.396;2022-09-09T01:07:29;100254.84;;;6.61;100.00
43703;BME280;29304;56.146;40.396;2022-09-09T01:07:40;100232.59;;;6.52;100.00
43703;BME280;29304;56.146;40.396;2022-09-09T01:07:55;100247.09;;;6.59;100.00
43703;BME280;29304;56.146;40.396;2022-09-09T01:08:23;100248.88;;;6.57;100.00
43703;BME280;29304;56.146;40.396;2022-09-09T01:09:50;100244.69;;;6.51;100.00
43703;BME280;29304;56.146;40.396;2022-09-09T01:10:07;100258.25;;;6.63;100.00
43703;BME280;29304;56.146;40.396;2022-09-09T01:10:50;100252.03;;;6.69;100.00
43703;BME280;29304;56.146;40.396;2022-09-09T01:11:03;100251.06;;;6.73;100.00
43703;BME280;29304;56.146;40.396;2022-09-09T01:11:21;100251.78;;;6.78;100.00
43703;BME280;29304;56.146;40.396;2022-09-09T01:12:23;100250.00;;;6.80;100.00
43703;BME280;29304;56.146;40.396;2022-09-09T01:12:42;100252.50;;;6.85;100.00
43703;BME280;29304;56.146;40.396;2022-09-09T01:12:55;100249.94;;;6.83;100.00
43703;BME280;29304;56.146;40.396;2022-09-09T01:13:15;100248.22;;;6.82;100.00
43703;BME280;29304;56.146;40.396;2022-09-09T01:13:31;100251.78;;;6.79;100.00
43703;BME280;29304;56.146;40.396;2022-09-09T01:13:45;100248.38;;;6.77;100.00
43703;BME280;29304;56.146;40.396;2022-09-09T01:14:13;100234.94;;;6.61;100.00
43703;BME280;29304;56.146;40.396;2022-09-09T01:14:52;100252.22;;;6.62;100.00
43703;BME280;29304;56.146;40.396;2022-09-09T01:15:25;100247.56;;;6.74;100.00
43703;BME280;29304;56.146;40.396;2022-09-09T01:15:38;100252.84;;;6.71;100.00
43703;BME280;29304;56.146;40.396;2022-09-09T01:15:50;100243.44;;;6.66;100.00
43703;BME280;29304;56.146;40.396;2022-09-09T01:16:04;100247.56;;;6.74;100.00
43703;BME280;29304;56.146;40.396;2022-09-09T01:16:18;100246.75;;;6.73;100.00
43703;BME280;29304;56.146;40.396;2022-09-09T01:16:28;100247.47;;;6.78;100.00
43703;BME280;29304;56.146;40.396;2022-09-09T01:16:40;100236.31;;;6.75;100.00
43703;BME280;29304;56.146;40.396;2022-09-09T01:16:59;100241.72;;;6.65;100.00
43703;BME280;29304;56.146;40.396;2022-09-09T01:17:21;100251.34;;;6.62;100.00
43703;BME280;29304;56.146;40.396;2022-09-09T01:17:46;100248.44;;;6.74;100.00
43703;BME280;29304;56.146;40.396;2022-09-09T01:18:06;100250.88;;;6.80;100.00
43703;BME280;29304;56.146;40.396;2022-09-09T01:18:22;100252.59;;;6.80;100.00
43703;BME280;29304;56.146;40.396;2022-09-09T01:18:36;100249.94;;;6.83;100.00
43703;BME280;29304;56.146;40.396;2022-09-09T01:18:49;100244.09;;;6.75;100.00
43703;BME280;29304;56.146;40.396;2022-09-09T01:19:03;100249.34;;;6.73;100.00
43703;BME280;29304;56.146;40.396;2022-09-09T01:19:32;100251.78;;;6.78;100.00
43703;BME280;29304;56.146;40.396;2022-09-09T01:20:53;100250.72;;;6.87;100.00
43703;BME280;29304;56.146;40.396;2022-09-09T01:21:43;100250.09;;;6.77;100.00
43703;BME280;29304;56.146;40.396;2022-09-09T01:22:05;100240.97;;;6.62;100.00
43703;BME280;29304;56.146;40.396;2022-09-09T01:24:21;100250.31;;;6.69;100.00
43703;BME280;29304;56.146;40.396;2022-09-09T01:26:10;100256.00;;;6.84;100.00
43703;BME280;29304;56.146;40.396;2022-09-09T01:26:43;100253.78;;;6.68;100.00
43703;BME280;29304;56.146;40.396;2022-09-09T01:26:59;100256.38;;;6.68;100.00
43703;BME280;29304;56.146;40.396;2022-09-09T01:27:12;100257.97;;;6.74;100.00
43703;BME280;29304;56.146;40.396;2022-09-09T01:27:25;100254.47;;;6.75;100.00
43703;BME280;29304;56.146;40.396;2022-09-09T01:27:36;100253.78;;;6.68;100.00
43703;BME280;29304;56.146;40.396;2022-09-09T01:27:49;100248.69;;;6.65;100.00
43703;BME280;29304;56.146;40.396;2022-09-09T01:28:04;100237.88;;;6.47;100.00
43703;BME280;29304;56.146;40.396;2022-09-09T01:28:25;100260.84;;;6.63;100.00
43703;BME280;29304;56.146;40.396;2022-09-09T01:28:37;100261.56;;;6.68;100.00
43703;BME280;29304;56.146;40.396;2022-09-09T01:28:51;100260.69;;;6.69;100.00
43703;BME280;29304;56.146;40.396;2022-09-09T01:29:16;100258.16;;;6.66;100.00
43703;BME280;29304;56.146;40.396;2022-09-09T01:29:27;100255.59;;;6.64;100.00
43703;BME280;29304;56.146;40.396;2022-09-09T01:29:37;100256.53;;;6.62;100.00
43703;BME280;29304;56.146;40.396;2022-09-09T01:29:48;100257.28;;;6.65;100.00
43703;BME280;29304;56.146;40.396;2022-09-09T01:29:58;100256.41;;;6.66;100.00
43703;BME280;29304;56.146;40.396;2022-09-09T01:30:11;100265.19;;;6.62;100.00
43703;BME280;29304;56.146;40.396;2022-09-09T01:30:23;100254.06;;;6.57;100.00
43703;BME280;29304;56.146;40.396;2022-09-09T01:30:38;100261.84;;;6.57;100.00
43703;BME280;29304;56.146;40.396;2022-09-09T01:30:50;100258.28;;;6.61;100.00
43703;BME280;29304;56.146;40.396;2022-09-09T01:31:03;100227.53;;;6.46;100.00
43703;BME280;29304;56.146;40.396;2022-09-09T01:31:18;100259.75;;;6.72;100.00
43703;BME280;29304;56.146;40.396;2022-09-09T01:31:38;100263.34;;;6.66;100.00
43703;BME280;29304;56.146;40.396;2022-09-09T01:32:40;100266.22;;;6.55;100.00
43703;BME280;29304;56.146;40.396;2022-09-09T01:32:55;100249.88;;;6.51;100.00
43703;BME280;29304;56.146;40.396;2022-09-09T01:33:13;100264.38;;;6.60;100.00
43703;BME280;29304;56.146;40.396;2022-09-09T01:33:24;100261.88;;;6.56;100.00
43703;BME280;29304;56.146;40.396;2022-09-09T01:33:35;100266.22;;;6.55;100.00
43703;BME280;29304;56.146;40.396;2022-09-09T01:33:45;100247.25;;;6.53;100.00
43703;BME280;29304;56.146;40.396;2022-09-09T01:33:56;100266.03;;;6.63;100.00
43703;BME280;29304;56.146;40.396;2022-09-09T01:34:14;100265.88;;;6.69;100.00
43703;BME280;29304;56.146;40.396;2022-09-09T01:34:31;100261.59;;;6.66;100.00
43703;BME280;29304;56.146;40.396;2022-09-09T01:34:43;100260.63;;;6.71;100.00
43703;BME280;29304;56.146;40.396;2022-09-09T01:34:54;100249.72;;;6.58;100.00
43703;BME280;29304;56.146;40.396;2022-09-09T01:35:07;100260.91;;;6.60;100.00
43703;BME280;29304;56.146;40.396;2022-09-09T01:35:34;100264.19;;;6.66;100.00
43703;BME280;29304;56.146;40.396;2022-09-09T01:35:55;100263.22;;;6.71;100.00
43703;BME280;29304;56.146;40.396;2022-09-09T01:36:16;100274.50;;;6.70;100.00
43703;BME280;29304;56.146;40.396;2022-09-09T01:36:43;100270.38;;;6.62;100.00
43703;BME280;29304;56.146;40.396;2022-09-09T01:37:09;100266.91;;;6.62;100.00
43703;BME280;29304;56.146;40.396;2022-09-09T01:37:20;100265.19;;;6.62;100.00
43703;BME280;29304;56.146;40.396;2022-09-09T01:37:31;100268.56;;;6.64;100.00
43703;BME280;29304;56.146;40.396;2022-09-09T01:37:41;100259.06;;;6.63;100.00
43703;BME280;29304;56.146;40.396;2022-09-09T01:37:52;100262.53;;;6.64;100.00
43703;BME280;29304;56.146;40.396;2022-09-09T01:38:03;100266.91;;;6.62;100.00
43703;BME280;29304;56.146;40.396;2022-09-09T01:38:14;100258.31;;;6.60;100.00
43703;BME280;29304;56.146;40.396;2022-09-09T01:38:25;100268.56;;;6.66;100.00
43703;BME280;29304;56.146;40.396;2022-09-09T01:38:36;100271.28;;;6.61;100.00
43703;BME280;29304;56.146;40.396;2022-09-09T01:38:46;100269.34;;;6.68;100.00
43703;BME280;29304;56.146;40.396;2022-09-09T01:38:57;100277.22;;;6.65;100.00
43703;BME280;29304;56.146;40.396;2022-09-09T01:39:08;100274.50;;;6.70;100.00
43703;BME280;29304;56.146;40.396;2022-09-09T01:39:19;100273.69;;;6.67;100.00
43703;BME280;29304;56.146;40.396;2022-09-09T01:39:31;100267.69;;;6.65;100.00
43703;BME280;29304;56.146;40.396;2022-09-09T01:39:43;100266.84;;;6.65;100.00
43703;BME280;29304;56.146;40.396;2022-09-09T01:39:54;100277.22;;;6.65;100.00
43703;BME280;29304;56.146;40.396;2022-09-09T01:40:05;100275.44;;;6.67;100.00
43703;BME280;29304;56.146;40.396;2022-09-09T01:40:16;100273.75;;;6.66;100.00
43703;BME280;29304;56.146;40.396;2022-09-09T01:40:27;100263.38;;;6.64;100.00
43703;BME280;29304;56.146;40.396;2022-09-09T01:40:37;100273.59;;;6.72;100.00
43703;BME280;29304;56.146;40.396;2022-09-09T01:40:48;100272.69;;;6.73;100.00
43703;BME280;29304;56.146;40.396;2022-09-09T01:40:59;100275.22;;;6.75;100.00
43703;BME280;29304;56.146;40.396;2022-09-09T01:41:09;100270.03;;;6.76;100.00
43703;BME280;29304;56.146;40.396;2022-09-09T01:41:20;100271.72;;;6.77;100.00
43703;BME280;29304;56.146;40.396;2022-09-09T01:41:30;100279.53;;;6.76;100.00
43703;BME280;29304;56.146;40.396;2022-09-09T01:41:41;100275.22;;;6.76;100.00
43703;BME280;29304;56.146;40.396;2022-09-09T01:41:53;100271.00;;;6.71;100.00
43703;BME280;29304;56.146;40.396;2022-09-09T01:42:05;100277.81;;;6.76;100.00
43703;BME280;29304;56.146;40.396;2022-09-09T01:42:17;100277.75;;;6.78;100.00
43703;BME280;29304;56.146;40.396;2022-09-09T01:42:27;100258.13;;;6.67;100.00
43703;BME280;29304;56.146;40.396;2022-09-09T01:42:38;100276.91;;;6.77;100.00
43703;BME280;29304;56.146;40.396;2022-09-09T01:42:48;100280.31;;;6.79;100.00
43703;BME280;29304;56.146;40.396;2022-09-09T01:42:59;100270.03;;;6.75;100.00
43703;BME280;29304;56.146;40.396;2022-09-09T01:43:09;100275.97;;;6.80;100.00
43703;BME280;29304;56.146;40.396;2022-09-09T01:43:21;100275.97;;;6.80;100.00
43703;BME280;29304;56.146;40.396;2022-09-09T01:43:32;100281.16;;;6.80;100.00
43703;BME280;29304;56.146;40.396;2022-09-09T01:43:43;100264.94;;;6.72;100.00
43703;BME280;29304;56.146;40.396;2022-09-09T01:43:55;100278.72;;;6.74;100.00
43703;BME280;29304;56.146;40.396;2022-09-09T01:44:07;100281.31;;;6.74;100.00
43703;BME280;29304;56.146;40.396;2022-09-09T01:44:18;100281.31;;;6.74;100.00
43703;BME280;29304;56.146;40.396;2022-09-09T01:44:29;100278.66;;;6.77;100.00
43703;BME280;29304;56.146;40.396;2022-09-09T01:44:40;100278.66;;;6.77;100.00
43703;BME280;29304;56.146;40.396;2022-09-09T01:44:50;100276.03;;;6.78;100.00
43703;BME280;29304;56.146;40.396;2022-09-09T01:45:01;100279.53;;;6.76;100.00
43703;BME280;29304;56.146;40.396;2022-09-09T01:45:11;100277.88;;;6.73;100.00
43703;BME280;29304;56.146;40.396;2022-09-09T01:45:22;100277.81;;;6.76;100.00
43703;BME280;29304;56.146;40.396;2022-09-09T01:45:33;100275.13;;;6.79;100.00
43703;BME280;29304;56.146;40.396;2022-09-09T01:45:46;100281.25;;;6.77;100.00
43703;BME280;29304;56.146;40.396;2022-09-09T01:46:00;100281.38;;;6.72;100.00
43703;BME280;29304;56.146;40.396;2022-09-09T01:46:12;100279.53;;;6.76;100.00
43703;BME280;29304;56.146;40.396;2022-09-09T01:46:23;100261.56;;;6.68;100.00
43703;BME280;29304;56.146;40.396;2022-09-09T01:46:34;100277.91;;;6.72;100.00
43703;BME280;29304;56.146;40.396;2022-09-09T01:46:45;100277.22;;;6.65;100.00
43703;BME280;29304;56.146;40.396;2022-09-09T01:46:55;100277.38;;;6.59;100.00
43703;BME280;29304;56.146;40.396;2022-09-09T01:47:06;100282.63;;;6.57;100.00
43703;BME280;29304;56.146;40.396;2022-09-09T01:47:16;100268.84;;;6.55;100.00
43703;BME280;29304;56.146;40.396;2022-09-09T01:47:27;100277.97;;;6.69;100.00
43703;BME280;29304;56.146;40.396;2022-09-09T01:47:38;100280.66;;;6.65;100.00
43703;BME280;29304;56.146;40.396;2022-09-09T01:47:48;100278.94;;;6.64;100.00
43703;BME280;29304;56.146;40.396;2022-09-09T01:47:59;100278.06;;;6.65;100.00
43703;BME280;29304;56.146;40.396;2022-09-09T01:48:10;100280.56;;;6.70;100.00
43703;BME280;29304;56.146;40.396;2022-09-09T01:48:22;100284.81;;;6.73;100.00
43703;BME280;29304;56.146;40.396;2022-09-09T01:48:33;100283.16;;;6.70;100.00
43703;BME280;29304;56.146;40.396;2022-09-09T01:48:45;100276.47;;;6.61;100.00
43703;BME280;29304;56.146;40.396;2022-09-09T01:48:57;100280.91;;;6.56;100.00
43703;BME280;29304;56.146;40.396;2022-09-09T01:49:09;100280.91;;;6.56;100.00
43703;BME280;29304;56.146;40.396;2022-09-09T01:49:19;100280.91;;;6.56;100.00
43703;BME280;29304;56.146;40.396;2022-09-09T01:49:30;100272.38;;;6.51;100.00
43703;BME280;29304;56.146;40.396;2022-09-09T01:49:42;100284.13;;;6.64;100.00
43703;BME280;29304;56.146;40.396;2022-09-09T01:49:52;100284.25;;;6.61;100.00
43703;BME280;29304;56.146;40.396;2022-09-09T01:50:03;100280.84;;;6.58;100.00
43703;BME280;29304;56.146;40.396;2022-09-09T01:50:16;100286.06;;;6.58;100.00
43703;BME280;29304;56.146;40.396;2022-09-09T01:50:26;100282.63;;;6.56;100.00
43703;BME280;29304;56.146;40.396;2022-09-09T01:50:37;100271.50;;;6.52;100.00
43703;BME280;29304;56.146;40.396;2022-09-09T01:50:47;100283.44;;;6.59;100.00
43703;BME280;29304;56.146;40.396;2022-09-09T01:50:57;100270.63;;;6.51;100.00
43703;BME280;29304;56.146;40.396;2022-09-09T01:51:08;100288.63;;;6.59;100.00
43703;BME280;29304;56.146;40.396;2022-09-09T01:51:21;100285.84;;;6.65;100.00
43703;BME280;29304;56.146;40.396;2022-09-09T01:51:31;100270.47;;;6.58;100.00
43703;BME280;29304;56.146;40.396;2022-09-09T01:51:42;100286.59;;;6.71;100.00
43703;BME280;29304;56.146;40.396;2022-09-09T01:51:55;100290.84;;;6.73;100.00
43703;BME280;29304;56.146;40.396;2022-09-09T01:52:06;100291.69;;;6.75;100.00
43703;BME280;29304;56.146;40.396;2022-09-09T01:52:18;100284.72;;;6.76;100.00
43703;BME280;29304;56.146;40.396;2022-09-09T01:52:29;100290.06;;;6.70;100.00
43703;BME280;29304;56.146;40.396;2022-09-09T01:52:42;100290.81;;;6.75;100.00